sensor_id;sensor_type;location;lat;lon;timestamp;P1;durP1;ratioP1;P2;durP2;ratioP2
59016;SDS011;44800;55.600;38.134;2023-04-01T00:00:36;32.80;;;13.48;;
59016;SDS011;44800;55.600;38.134;2023-04-01T00:03:05;38.70;;;14.25;;
59016;SDS011;44800;55.600;38.134;2023-04-01T00:05:33;37.20;;;14.40;;
59016;SDS011;44800;55.600;38.134;2023-04-01T00:08:02;47.35;;;17.27;;
59016;SDS011;44800;55.600;38.134;2023-04-01T00:10:32;34.58;;;15.63;;
59016;SDS011;44800;55.600;38.134;2023-04-01T00:13:01;45.97;;;15.93;;
59016;SDS011;44800;55.600;38.134;2023-04-01T00:15:29;46.00;;;18.67;;
59016;SDS011;44800;55.600;38.134;2023-04-01T00:17:58;49.50;;;17.95;;
59016;SDS011;44800;55.600;38.134;2023-04-01T00:20:27;46.65;;;18.02;;
59016;SDS011;44800;55.600;38.134;2023-04-01T00:22:56;54.20;;;20.45;;
59016;SDS011;44800;55.600;38.134;2023-04-01T00:25:24;35.63;;;15.57;;
59016;SDS011;44800;55.600;38.134;2023-04-01T00:27:54;39.97;;;15.38;;
59016;SDS011;44800;55.600;38.134;2023-04-01T00:30:22;34.80;;;15.32;;
59016;SDS011;44800;55.600;38.134;2023-04-01T00:32:51;38.75;;;15.32;;
59016;SDS011;44800;55.600;38.134;2023-04-01T00:35:19;25.38;;;12.30;;
59016;SDS011;44800;55.600;38.134;2023-04-01T00:37:48;32.45;;;13.80;;
59016;SDS011;44800;55.600;38.134;2023-04-01T00:40:23;32.90;;;13.85;;
59016;SDS011;44800;55.600;38.134;2023-04-01T00:42:55;30.42;;;13.80;;
59016;SDS011;44800;55.600;38.134;2023-04-01T00:45:29;37.58;;;15.27;;
59016;SDS011;44800;55.600;38.134;2023-04-01T00:48:00;36.97;;;14.23;;
59016;SDS011;44800;55.600;38.134;2023-04-01T00:50:30;39.25;;;16.75;;
59016;SDS011;44800;55.600;38.134;2023-04-01T00:52:59;34.95;;;13.77;;
59016;SDS011;44800;55.600;38.134;2023-04-01T00:55:30;34.58;;;15.02;;
59016;SDS011;44800;55.600;38.134;2023-04-01T00:58:03;35.13;;;13.82;;
59016;SDS011;44800;55.600;38.134;2023-04-01T01:00:32;30.90;;;12.32;;
59016;SDS011;44800;55.600;38.134;2023-04-01T01:03:00;32.47;;;13.75;;
59016;SDS011;44800;55.600;38.134;2023-04-01T01:05:31;36.08;;;14.93;;
59016;SDS011;44800;55.600;38.134;2023-04-01T01:08:15;31.20;;;12.90;;
59016;SDS011;44800;55.600;38.134;2023-04-01T01:10:50;33.47;;;13.68;;
59016;SDS011;44800;55.600;38.134;2023-04-01T01:13:21;36.80;;;14.98;;
59016;SDS011;44800;55.600;38.134;2023-04-01T01:15:54;29.27;;;13.50;;
59016;SDS011;44800;55.600;38.134;2023-04-01T01:18:26;30.40;;;13.32;;
59016;SDS011;44800;55.600;38.134;2023-04-01T01:21:04;33.53;;;14.40;;
59016;SDS011;44800;55.600;38.134;2023-04-01T01:29:16;36.15;;;14.35;;
59016;SDS011;44800;55.600;38.134;2023-04-01T01:32:06;34.83;;;14.00;;
59016;SDS011;44800;55.600;38.134;2023-04-01T01:34:40;38.35;;;14.68;;
59016;SDS011;44800;55.600;38.134;2023-04-01T01:37:17;42.08;;;14.95;;
59016;SDS011;44800;55.600;38.134;2023-04-01T01:39:48;31.48;;;13.48;;
59016;SDS011;44800;55.600;38.134;2023-04-01T01:42:19;38.47;;;15.35;;
59016;SDS011;44800;55.600;38.134;2023-04-01T01:44:48;40.70;;;14.90;;
59016;SDS011;44800;55.600;38.134;2023-04-01T01:47:18;39.78;;;15.65;;
59016;SDS011;44800;55.600;38.134;2023-04-01T01:49:47;42.47;;;16.58;;
59016;SDS011;44800;55.600;38.134;2023-04-01T01:52:17;34.15;;;15.80;;
59016;SDS011;44800;55.600;38.134;2023-04-01T01:54:47;37.40;;;15.68;;
59016;SDS011;44800;55.600;38.134;2023-04-01T01:57:15;39.15;;;15.70;;
59016;SDS011;44800;55.600;38.134;2023-04-01T01:59:45;39.33;;;15.38;;
59016;SDS011;44800;55.600;38.134;2023-04-01T02:02:15;37.03;;;16.00;;
59016;SDS011;44800;55.600;38.134;2023-04-01T02:04:44;33.95;;;14.48;;
59016;SDS011;44800;55.600;38.134;2023-04-01T02:07:14;26.23;;;12.23;;
59016;SDS011;44800;55.600;38.134;2023-04-01T02:09:45;29.45;;;12.88;;
59016;SDS011;44800;55.600;38.134;2023-04-01T02:12:14;23.58;;;10.55;;
59016;SDS011;44800;55.600;38.134;2023-04-01T02:14:45;30.20;;;11.85;;
59016;SDS011;44800;55.600;38.134;2023-04-01T02:17:17;25.35;;;11.40;;
59016;SDS011;44800;55.600;38.134;2023-04-01T02:19:47;23.60;;;11.02;;
59016;SDS011;44800;55.600;38.134;2023-04-01T02:22:18;26.60;;;11.07;;
59016;SDS011;44800;55.600;38.134;2023-04-01T02:24:49;28.23;;;11.35;;
59016;SDS011;44800;55.600;38.134;2023-04-01T02:27:18;32.83;;;13.95;;
59016;SDS011;44800;55.600;38.134;2023-04-01T02:29:47;20.45;;;9.20;;
59016;SDS011;44800;55.600;38.134;2023-04-01T02:32:16;29.80;;;10.20;;
59016;SDS011;44800;55.600;38.134;2023-04-01T02:34:46;26.95;;;9.75;;
59016;SDS011;44800;55.600;38.134;2023-04-01T02:37:14;25.90;;;10.02;;
59016;SDS011;44800;55.600;38.134;2023-04-01T02:39:43;24.33;;;10.38;;
59016;SDS011;44800;55.600;38.134;2023-04-01T02:42:13;18.58;;;7.32;;
59016;SDS011;44800;55.600;38.134;2023-04-01T02:44:41;21.05;;;7.40;;
59016;SDS011;44800;55.600;38.134;2023-04-01T02:47:10;20.00;;;8.60;;
59016;SDS011;44800;55.600;38.134;2023-04-01T02:49:39;18.58;;;8.23;;
59016;SDS011;44800;55.600;38.134;2023-04-01T02:52:08;20.42;;;9.50;;
59016;SDS011;44800;55.600;38.134;2023-04-01T02:54:36;23.58;;;10.63;;
59016;SDS011;44800;55.600;38.134;2023-04-01T02:57:04;22.63;;;9.52;;
59016;SDS011;44800;55.600;38.134;2023-04-01T02:59:34;24.25;;;10.27;;
59016;SDS011;44800;55.600;38.134;2023-04-01T03:02:02;21.27;;;8.65;;
59016;SDS011;44800;55.600;38.134;2023-04-01T03:04:31;21.27;;;9.52;;
59016;SDS011;44800;55.600;38.134;2023-04-01T03:06:59;27.02;;;9.10;;
59016;SDS011;44800;55.600;38.134;2023-04-01T03:09:27;24.73;;;9.27;;
59016;SDS011;44800;55.600;38.134;2023-04-01T03:11:56;28.38;;;10.10;;
59016;SDS011;44800;55.600;38.134;2023-04-01T03:14:25;20.38;;;8.88;;
59016;SDS011;44800;55.600;38.134;2023-04-01T03:16:54;22.20;;;8.88;;
59016;SDS011;44800;55.600;38.134;2023-04-01T03:19:23;22.45;;;8.95;;
59016;SDS011;44800;55.600;38.134;2023-04-01T03:21:51;18.92;;;8.30;;
59016;SDS011;44800;55.600;38.134;2023-04-01T03:24:20;22.02;;;9.40;;
59016;SDS011;44800;55.600;38.134;2023-04-01T03:26:48;18.75;;;8.93;;
59016;SDS011;44800;55.600;38.134;2023-04-01T03:29:16;20.05;;;8.48;;
59016;SDS011;44800;55.600;38.134;2023-04-01T03:31:45;20.10;;;9.07;;
59016;SDS011;44800;55.600;38.134;2023-04-01T03:34:14;18.55;;;9.07;;
59016;SDS011;44800;55.600;38.134;2023-04-01T03:36:43;21.75;;;8.85;;
59016;SDS011;44800;55.600;38.134;2023-04-01T03:39:11;20.85;;;8.82;;
59016;SDS011;44800;55.600;38.134;2023-04-01T03:41:40;21.15;;;9.48;;
59016;SDS011;44800;55.600;38.134;2023-04-01T03:44:08;22.15;;;8.05;;
59016;SDS011;44800;55.600;38.134;2023-04-01T03:46:36;16.63;;;7.32;;
59016;SDS011;44800;55.600;38.134;2023-04-01T03:49:06;19.23;;;8.73;;
59016;SDS011;44800;55.600;38.134;2023-04-01T03:51:40;25.05;;;10.07;;
59016;SDS011;44800;55.600;38.134;2023-04-01T03:54:10;23.38;;;8.88;;
59016;SDS011;44800;55.600;38.134;2023-04-01T03:56:38;21.33;;;8.98;;
59016;SDS011;44800;55.600;38.134;2023-04-01T03:59:07;18.33;;;7.45;;
59016;SDS011;44800;55.600;38.134;2023-04-01T04:01:35;20.42;;;9.13;;
59016;SDS011;44800;55.600;38.134;2023-04-01T04:04:04;24.55;;;9.98;;
59016;SDS011;44800;55.600;38.134;2023-04-01T04:06:32;21.33;;;8.70;;
59016;SDS011;44800;55.600;38.134;2023-04-01T04:09:02;19.58;;;8.07;;
59016;SDS011;44800;55.600;38.134;2023-04-01T04:11:31;25.17;;;9.25;;
59016;SDS011;44800;55.600;38.134;2023-04-01T04:13:59;21.50;;;9.73;;
59016;SDS011;44800;55.600;38.134;2023-04-01T04:16:28;23.23;;;9.93;;
59016;SDS011;44800;55.600;38.134;2023-04-01T04:18:56;15.20;;;7.47;;
59016;SDS011;44800;55.600;38.134;2023-04-01T04:21:25;20.10;;;8.57;;
59016;SDS011;44800;55.600;38.134;2023-04-01T04:23:54;21.65;;;9.68;;
59016;SDS011;44800;55.600;38.134;2023-04-01T04:26:23;19.20;;;8.23;;
59016;SDS011;44800;55.600;38.134;2023-04-01T04:28:53;22.95;;;8.85;;
59016;SDS011;44800;55.600;38.134;2023-04-01T04:31:22;25.92;;;9.90;;
59016;SDS011;44800;55.600;38.134;2023-04-01T04:33:51;24.58;;;10.07;;
59016;SDS011;44800;55.600;38.134;2023-04-01T04:36:19;20.20;;;10.75;;
59016;SDS011;44800;55.600;38.134;2023-04-01T04:38:48;23.40;;;9.93;;
59016;SDS011;44800;55.600;38.134;2023-04-01T04:41:17;28.40;;;12.98;;
59016;SDS011;44800;55.600;38.134;2023-04-01T04:43:50;26.02;;;11.15;;
59016;SDS011;44800;55.600;38.134;2023-04-01T04:46:19;20.20;;;8.15;;
59016;SDS011;44800;55.600;38.134;2023-04-01T04:48:48;27.55;;;11.07;;
59016;SDS011;44800;55.600;38.134;2023-04-01T04:51:17;25.55;;;10.88;;
59016;SDS011;44800;55.600;38.134;2023-04-01T04:53:46;29.55;;;11.35;;
59016;SDS011;44800;55.600;38.134;2023-04-01T04:56:17;25.25;;;12.40;;
59016;SDS011;44800;55.600;38.134;2023-04-01T04:58:46;26.83;;;12.10;;
59016;SDS011;44800;55.600;38.134;2023-04-01T05:01:16;30.30;;;12.18;;
59016;SDS011;44800;55.600;38.134;2023-04-01T05:03:45;26.63;;;11.50;;
59016;SDS011;44800;55.600;38.134;2023-04-01T05:06:14;24.98;;;11.90;;
59016;SDS011;44800;55.600;38.134;2023-04-01T05:08:44;29.60;;;13.25;;
59016;SDS011;44800;55.600;38.134;2023-04-01T05:11:13;26.98;;;13.20;;
59016;SDS011;44800;55.600;38.134;2023-04-01T05:13:43;32.13;;;12.98;;
59016;SDS011;44800;55.600;38.134;2023-04-01T05:16:13;29.35;;;12.57;;
59016;SDS011;44800;55.600;38.134;2023-04-01T05:18:43;28.55;;;11.63;;
59016;SDS011;44800;55.600;38.134;2023-04-01T05:21:12;26.40;;;12.68;;
59016;SDS011;44800;55.600;38.134;2023-04-01T05:23:42;33.70;;;12.38;;
59016;SDS011;44800;55.600;38.134;2023-04-01T05:26:11;23.08;;;11.80;;
59016;SDS011;44800;55.600;38.134;2023-04-01T05:28:41;32.13;;;13.27;;
59016;SDS011;44800;55.600;38.134;2023-04-01T05:31:10;28.58;;;12.02;;
59016;SDS011;44800;55.600;38.134;2023-04-01T05:33:38;30.27;;;12.90;;
59016;SDS011;44800;55.600;38.134;2023-04-01T05:36:09;25.92;;;10.95;;
59016;SDS011;44800;55.600;38.134;2023-04-01T05:38:39;27.90;;;12.23;;
59016;SDS011;44800;55.600;38.134;2023-04-01T05:41:09;22.23;;;10.38;;
59016;SDS011;44800;55.600;38.134;2023-04-01T05:43:37;31.92;;;13.80;;
59016;SDS011;44800;55.600;38.134;2023-04-01T05:46:06;28.45;;;11.73;;
59016;SDS011;44800;55.600;38.134;2023-04-01T05:48:34;24.70;;;11.13;;
59016;SDS011;44800;55.600;38.134;2023-04-01T05:51:03;29.65;;;12.07;;
59016;SDS011;44800;55.600;38.134;2023-04-01T05:53:33;22.90;;;9.57;;
59016;SDS011;44800;55.600;38.134;2023-04-01T05:56:02;24.88;;;10.75;;
59016;SDS011;44800;55.600;38.134;2023-04-01T05:58:31;22.52;;;10.43;;
59016;SDS011;44800;55.600;38.134;2023-04-01T06:01:00;18.30;;;9.43;;
59016;SDS011;44800;55.600;38.134;2023-04-01T06:03:36;26.55;;;11.55;;
59016;SDS011;44800;55.600;38.134;2023-04-01T06:06:05;21.90;;;10.98;;
59016;SDS011;44800;55.600;38.134;2023-04-01T06:08:38;24.67;;;9.95;;
59016;SDS011;44800;55.600;38.134;2023-04-01T06:11:11;27.13;;;11.73;;
59016;SDS011;44800;55.600;38.134;2023-04-01T06:13:58;16.52;;;6.95;;
59016;SDS011;44800;55.600;38.134;2023-04-01T06:16:35;25.33;;;11.32;;
59016;SDS011;44800;55.600;38.134;2023-04-01T06:19:16;24.13;;;10.70;;
59016;SDS011;44800;55.600;38.134;2023-04-01T06:25:12;19.30;;;7.55;;
59016;SDS011;44800;55.600;38.134;2023-04-01T06:30:31;24.17;;;9.95;;
59016;SDS011;44800;55.600;38.134;2023-04-01T06:36:02;17.38;;;9.55;;
59016;SDS011;44800;55.600;38.134;2023-04-01T06:38:55;22.63;;;10.73;;
59016;SDS011;44800;55.600;38.134;2023-04-01T06:41:41;18.83;;;8.45;;
59016;SDS011;44800;55.600;38.134;2023-04-01T06:44:19;19.88;;;9.27;;
59016;SDS011;44800;55.600;38.134;2023-04-01T06:46:52;20.67;;;8.90;;
59016;SDS011;44800;55.600;38.134;2023-04-01T06:49:33;23.52;;;9.77;;
59016;SDS011;44800;55.600;38.134;2023-04-01T06:52:10;19.65;;;9.25;;
59016;SDS011;44800;55.600;38.134;2023-04-01T06:54:44;26.05;;;10.85;;
59016;SDS011;44800;55.600;38.134;2023-04-01T06:57:20;19.80;;;10.35;;
59016;SDS011;44800;55.600;38.134;2023-04-01T06:59:53;23.08;;;9.50;;
59016;SDS011;44800;55.600;38.134;2023-04-01T07:02:25;19.65;;;8.00;;
59016;SDS011;44800;55.600;38.134;2023-04-01T07:04:58;19.48;;;10.27;;
59016;SDS011;44800;55.600;38.134;2023-04-01T07:07:29;19.60;;;10.48;;
59016;SDS011;44800;55.600;38.134;2023-04-01T07:10:02;20.35;;;10.65;;
59016;SDS011;44800;55.600;38.134;2023-04-01T07:12:38;20.05;;;11.73;;
59016;SDS011;44800;55.600;38.134;2023-04-01T07:15:13;17.73;;;8.82;;
59016;SDS011;44800;55.600;38.134;2023-04-01T07:17:46;29.42;;;12.13;;
59016;SDS011;44800;55.600;38.134;2023-04-01T07:20:17;26.13;;;11.48;;
59016;SDS011;44800;55.600;38.134;2023-04-01T07:22:49;25.42;;;11.93;;
59016;SDS011;44800;55.600;38.134;2023-04-01T07:25:18;24.70;;;11.65;;
59016;SDS011;44800;55.600;38.134;2023-04-01T07:27:50;26.67;;;12.18;;
59016;SDS011;44800;55.600;38.134;2023-04-01T07:30:19;29.30;;;12.35;;
59016;SDS011;44800;55.600;38.134;2023-04-01T07:32:50;31.17;;;13.05;;
59016;SDS011;44800;55.600;38.134;2023-04-01T07:35:22;32.78;;;14.82;;
59016;SDS011;44800;55.600;38.134;2023-04-01T07:40:27;33.10;;;12.52;;
59016;SDS011;44800;55.600;38.134;2023-04-01T07:43:08;30.40;;;11.93;;
59016;SDS011;44800;55.600;38.134;2023-04-01T07:45:53;25.20;;;12.90;;
59016;SDS011;44800;55.600;38.134;2023-04-01T07:48:28;26.67;;;11.85;;
59016;SDS011;44800;55.600;38.134;2023-04-01T07:51:02;29.70;;;12.35;;
59016;SDS011;44800;55.600;38.134;2023-04-01T07:53:32;33.25;;;13.27;;
59016;SDS011;44800;55.600;38.134;2023-04-01T07:56:05;27.33;;;13.35;;
59016;SDS011;44800;55.600;38.134;2023-04-01T07:58:41;34.20;;;14.95;;
59016;SDS011;44800;55.600;38.134;2023-04-01T08:01:17;28.60;;;13.70;;
59016;SDS011;44800;55.600;38.134;2023-04-01T08:03:57;31.40;;;14.77;;
59016;SDS011;44800;55.600;38.134;2023-04-01T08:09:05;28.95;;;12.63;;
59016;SDS011;44800;55.600;38.134;2023-04-01T08:11:41;23.13;;;12.15;;
59016;SDS011;44800;55.600;38.134;2023-04-01T08:14:12;29.73;;;12.70;;
59016;SDS011;44800;55.600;38.134;2023-04-01T08:16:45;27.80;;;14.43;;
59016;SDS011;44800;55.600;38.134;2023-04-01T08:19:21;29.65;;;14.77;;
59016;SDS011;44800;55.600;38.134;2023-04-01T08:21:55;18.33;;;10.88;;
59016;SDS011;44800;55.600;38.134;2023-04-01T08:24:26;24.48;;;13.05;;
59016;SDS011;44800;55.600;38.134;2023-04-01T08:27:12;12.88;;;7.72;;
59016;SDS011;44800;55.600;38.134;2023-04-01T08:29:46;30.30;;;13.07;;
59016;SDS011;44800;55.600;38.134;2023-04-01T08:32:18;22.25;;;10.80;;
59016;SDS011;44800;55.600;38.134;2023-04-01T08:34:50;25.38;;;12.70;;
59016;SDS011;44800;55.600;38.134;2023-04-01T08:37:24;25.80;;;13.85;;
59016;SDS011;44800;55.600;38.134;2023-04-01T08:39:54;22.52;;;11.23;;
59016;SDS011;44800;55.600;38.134;2023-04-01T08:42:38;25.73;;;13.40;;
59016;SDS011;44800;55.600;38.134;2023-04-01T08:45:31;25.63;;;13.15;;
59016;SDS011;44800;55.600;38.134;2023-04-01T08:48:08;19.88;;;11.32;;
59016;SDS011;44800;55.600;38.134;2023-04-01T08:53:33;21.95;;;11.23;;
59016;SDS011;44800;55.600;38.134;2023-04-01T08:56:06;19.90;;;10.07;;
59016;SDS011;44800;55.600;38.134;2023-04-01T08:58:53;22.52;;;12.10;;
59016;SDS011;44800;55.600;38.134;2023-04-01T09:01:31;24.73;;;10.50;;
59016;SDS011;44800;55.600;38.134;2023-04-01T09:04:14;20.83;;;9.07;;
59016;SDS011;44800;55.600;38.134;2023-04-01T09:06:56;23.58;;;10.20;;
59016;SDS011;44800;55.600;38.134;2023-04-01T09:12:42;23.58;;;11.10;;
59016;SDS011;44800;55.600;38.134;2023-04-01T09:15:37;22.92;;;10.90;;
59016;SDS011;44800;55.600;38.134;2023-04-01T09:21:24;27.55;;;11.45;;
59016;SDS011;44800;55.600;38.134;2023-04-01T09:24:07;26.98;;;13.27;;
59016;SDS011;44800;55.600;38.134;2023-04-01T09:27:02;25.23;;;13.20;;
59016;SDS011;44800;55.600;38.134;2023-04-01T09:29:40;26.27;;;11.80;;
59016;SDS011;44800;55.600;38.134;2023-04-01T09:35:37;28.13;;;9.73;;
59016;SDS011;44800;55.600;38.134;2023-04-01T09:38:14;28.23;;;11.23;;
59016;SDS011;44800;55.600;38.134;2023-04-01T09:40:52;24.90;;;12.73;;
59016;SDS011;44800;55.600;38.134;2023-04-01T09:43:25;30.13;;;13.30;;
59016;SDS011;44800;55.600;38.134;2023-04-01T09:46:06;18.42;;;9.80;;
59016;SDS011;44800;55.600;38.134;2023-04-01T09:51:46;26.80;;;11.43;;
59016;SDS011;44800;55.600;38.134;2023-04-01T09:54:25;28.02;;;12.88;;
59016;SDS011;44800;55.600;38.134;2023-04-01T10:03:21;21.17;;;10.23;;
59016;SDS011;44800;55.600;38.134;2023-04-01T10:06:17;14.95;;;6.78;;
59016;SDS011;44800;55.600;38.134;2023-04-01T10:09:21;17.33;;;8.10;;
59016;SDS011;44800;55.600;38.134;2023-04-01T10:12:34;23.63;;;9.52;;
59016;SDS011;44800;55.600;38.134;2023-04-01T10:27:16;10.93;;;5.57;;
59016;SDS011;44800;55.600;38.134;2023-04-01T10:29:55;19.40;;;8.63;;
59016;SDS011;44800;55.600;38.134;2023-04-01T10:32:44;16.83;;;8.90;;
59016;SDS011;44800;55.600;38.134;2023-04-01T10:35:57;16.10;;;7.68;;
59016;SDS011;44800;55.600;38.134;2023-04-01T10:38:56;20.67;;;8.20;;
59016;SDS011;44800;55.600;38.134;2023-04-01T10:44:58;13.98;;;6.05;;
59016;SDS011;44800;55.600;38.134;2023-04-01T10:53:42;9.55;;;5.63;;
59016;SDS011;44800;55.600;38.134;2023-04-01T11:02:02;7.97;;;3.85;;
59016;SDS011;44800;55.600;38.134;2023-04-01T11:07:51;8.52;;;4.68;;
59016;SDS011;44800;55.600;38.134;2023-04-01T11:17:11;13.32;;;6.50;;
59016;SDS011;44800;55.600;38.134;2023-04-01T11:22:59;12.10;;;5.07;;
59016;SDS011;44800;55.600;38.134;2023-04-01T11:25:56;8.18;;;5.75;;
59016;SDS011;44800;55.600;38.134;2023-04-01T11:28:36;10.77;;;5.75;;
59016;SDS011;44800;55.600;38.134;2023-04-01T11:34:12;11.68;;;5.10;;
59016;SDS011;44800;55.600;38.134;2023-04-01T11:36:51;14.77;;;5.60;;
59016;SDS011;44800;55.600;38.134;2023-04-01T11:39:29;10.77;;;4.57;;
59016;SDS011;44800;55.600;38.134;2023-04-01T11:42:06;6.28;;;3.92;;
59016;SDS011;44800;55.600;38.134;2023-04-01T11:44:43;12.38;;;4.95;;
59016;SDS011;44800;55.600;38.134;2023-04-01T11:47:28;10.82;;;4.72;;
59016;SDS011;44800;55.600;38.134;2023-04-01T11:50:14;11.07;;;6.35;;
59016;SDS011;44800;55.600;38.134;2023-04-01T11:55:50;13.40;;;6.20;;
59016;SDS011;44800;55.600;38.134;2023-04-01T12:01:33;11.13;;;5.30;;
59016;SDS011;44800;55.600;38.134;2023-04-01T12:07:41;12.77;;;6.10;;
59016;SDS011;44800;55.600;38.134;2023-04-01T12:10:18;11.63;;;6.15;;
59016;SDS011;44800;55.600;38.134;2023-04-01T12:12:51;12.20;;;5.63;;
59016;SDS011;44800;55.600;38.134;2023-04-01T12:15:29;13.63;;;5.65;;
59016;SDS011;44800;55.600;38.134;2023-04-01T12:18:05;11.95;;;5.00;;
59016;SDS011;44800;55.600;38.134;2023-04-01T12:20:44;10.10;;;5.32;;
59016;SDS011;44800;55.600;38.134;2023-04-01T12:23:22;11.80;;;5.75;;
59016;SDS011;44800;55.600;38.134;2023-04-01T12:26:10;7.80;;;4.43;;
59016;SDS011;44800;55.600;38.134;2023-04-01T12:28:47;13.20;;;5.13;;
59016;SDS011;44800;55.600;38.134;2023-04-01T12:31:25;9.88;;;4.70;;
59016;SDS011;44800;55.600;38.134;2023-04-01T12:34:10;14.10;;;5.63;;
59016;SDS011;44800;55.600;38.134;2023-04-01T12:36:59;10.93;;;5.38;;
59016;SDS011;44800;55.600;38.134;2023-04-01T12:42:23;8.95;;;3.63;;
59016;SDS011;44800;55.600;38.134;2023-04-01T12:50:53;15.27;;;5.53;;
59016;SDS011;44800;55.600;38.134;2023-04-01T12:53:35;10.23;;;5.10;;
59016;SDS011;44800;55.600;38.134;2023-04-01T12:56:09;5.65;;;4.03;;
59016;SDS011;44800;55.600;38.134;2023-04-01T13:01:59;12.73;;;5.82;;
59016;SDS011;44800;55.600;38.134;2023-04-01T13:07:23;10.23;;;4.95;;
59016;SDS011;44800;55.600;38.134;2023-04-01T13:10:02;9.90;;;5.22;;
59016;SDS011;44800;55.600;38.134;2023-04-01T13:15:36;11.77;;;5.15;;
59016;SDS011;44800;55.600;38.134;2023-04-01T13:18:10;16.33;;;5.60;;
59016;SDS011;44800;55.600;38.134;2023-04-01T13:20:49;6.80;;;3.45;;
59016;SDS011;44800;55.600;38.134;2023-04-01T13:23:24;10.13;;;4.50;;
59016;SDS011;44800;55.600;38.134;2023-04-01T13:26:02;8.75;;;4.15;;
59016;SDS011;44800;55.600;38.134;2023-04-01T13:28:40;9.25;;;4.55;;
59016;SDS011;44800;55.600;38.134;2023-04-01T13:31:24;11.25;;;4.35;;
59016;SDS011;44800;55.600;38.134;2023-04-01T13:34:00;11.02;;;4.13;;
59016;SDS011;44800;55.600;38.134;2023-04-01T13:36:40;7.82;;;3.90;;
59016;SDS011;44800;55.600;38.134;2023-04-01T13:39:20;8.82;;;3.72;;
59016;SDS011;44800;55.600;38.134;2023-04-01T13:42:07;6.82;;;3.05;;
59016;SDS011;44800;55.600;38.134;2023-04-01T13:44:43;8.05;;;3.95;;
59016;SDS011;44800;55.600;38.134;2023-04-01T13:47:24;7.63;;;4.15;;
59016;SDS011;44800;55.600;38.134;2023-04-01T13:53:18;7.15;;;4.15;;
59016;SDS011;44800;55.600;38.134;2023-04-01T13:55:58;10.57;;;4.25;;
59016;SDS011;44800;55.600;38.134;2023-04-01T13:58:38;11.43;;;4.93;;
59016;SDS011;44800;55.600;38.134;2023-04-01T14:01:32;7.53;;;4.43;;
59016;SDS011;44800;55.600;38.134;2023-04-01T14:04:10;16.75;;;6.20;;
59016;SDS011;44800;55.600;38.134;2023-04-01T14:07:00;8.93;;;5.28;;
59016;SDS011;44800;55.600;38.134;2023-04-01T14:09:48;10.95;;;6.22;;
59016;SDS011;44800;55.600;38.134;2023-04-01T14:12:27;9.88;;;5.65;;
59016;SDS011;44800;55.600;38.134;2023-04-01T14:15:03;12.48;;;6.32;;
59016;SDS011;44800;55.600;38.134;2023-04-01T14:17:50;11.32;;;6.78;;
59016;SDS011;44800;55.600;38.134;2023-04-01T14:20:29;10.63;;;5.93;;
59016;SDS011;44800;55.600;38.134;2023-04-01T14:23:12;12.23;;;6.55;;
59016;SDS011;44800;55.600;38.134;2023-04-01T14:25:50;5.57;;;3.50;;
59016;SDS011;44800;55.600;38.134;2023-04-01T14:28:29;16.35;;;7.75;;
59016;SDS011;44800;55.600;38.134;2023-04-01T14:31:09;10.52;;;6.18;;
59016;SDS011;44800;55.600;38.134;2023-04-01T14:33:50;13.70;;;7.28;;
59016;SDS011;44800;55.600;38.134;2023-04-01T14:42:19;14.15;;;8.32;;
59016;SDS011;44800;55.600;38.134;2023-04-01T14:44:55;18.80;;;8.68;;
59016;SDS011;44800;55.600;38.134;2023-04-01T14:47:34;15.05;;;7.32;;
59016;SDS011;44800;55.600;38.134;2023-04-01T14:50:12;12.88;;;6.70;;
59016;SDS011;44800;55.600;38.134;2023-04-01T14:52:46;14.88;;;7.95;;
59016;SDS011;44800;55.600;38.134;2023-04-01T14:55:28;17.13;;;7.47;;
59016;SDS011;44800;55.600;38.134;2023-04-01T14:58:09;22.90;;;10.18;;
59016;SDS011;44800;55.600;38.134;2023-04-01T15:00:41;10.43;;;6.50;;
59016;SDS011;44800;55.600;38.134;2023-04-01T15:03:18;15.18;;;7.97;;
59016;SDS011;44800;55.600;38.134;2023-04-01T15:05:52;16.08;;;7.97;;
59016;SDS011;44800;55.600;38.134;2023-04-01T15:08:26;16.73;;;8.55;;
59016;SDS011;44800;55.600;38.134;2023-04-01T15:11:03;18.00;;;8.43;;
59016;SDS011;44800;55.600;38.134;2023-04-01T15:16:47;14.95;;;7.78;;
59016;SDS011;44800;55.600;38.134;2023-04-01T15:19:24;19.92;;;10.98;;
59016;SDS011;44800;55.600;38.134;2023-04-01T15:22:02;20.38;;;10.10;;
59016;SDS011;44800;55.600;38.134;2023-04-01T15:24:43;21.50;;;10.95;;
59016;SDS011;44800;55.600;38.134;2023-04-01T15:27:17;22.17;;;10.73;;
59016;SDS011;44800;55.600;38.134;2023-04-01T15:29:59;23.58;;;11.43;;
59016;SDS011;44800;55.600;38.134;2023-04-01T15:35:25;15.85;;;8.05;;
59016;SDS011;44800;55.600;38.134;2023-04-01T15:38:02;17.98;;;11.25;;
59016;SDS011;44800;55.600;38.134;2023-04-01T15:40:37;15.63;;;10.32;;
59016;SDS011;44800;55.600;38.134;2023-04-01T15:43:14;22.08;;;10.32;;
59016;SDS011;44800;55.600;38.134;2023-04-01T15:45:51;17.52;;;11.35;;
59016;SDS011;44800;55.600;38.134;2023-04-01T15:48:33;24.38;;;11.02;;
59016;SDS011;44800;55.600;38.134;2023-04-01T15:51:14;18.70;;;10.48;;
59016;SDS011;44800;55.600;38.134;2023-04-01T15:53:56;13.60;;;8.93;;
59016;SDS011;44800;55.600;38.134;2023-04-01T15:56:40;19.60;;;12.32;;
59016;SDS011;44800;55.600;38.134;2023-04-01T15:59:17;15.48;;;11.00;;
59016;SDS011;44800;55.600;38.134;2023-04-01T16:01:53;20.90;;;11.32;;
59016;SDS011;44800;55.600;38.134;2023-04-01T16:04:34;12.23;;;7.82;;
59016;SDS011;44800;55.600;38.134;2023-04-01T16:09:47;19.90;;;9.52;;
59016;SDS011;44800;55.600;38.134;2023-04-01T16:12:31;13.15;;;8.75;;
59016;SDS011;44800;55.600;38.134;2023-04-01T16:15:08;14.88;;;6.88;;
59016;SDS011;44800;55.600;38.134;2023-04-01T16:17:54;16.80;;;8.55;;
59016;SDS011;44800;55.600;38.134;2023-04-01T16:20:39;14.43;;;9.15;;
59016;SDS011;44800;55.600;38.134;2023-04-01T16:23:13;17.00;;;9.52;;
59016;SDS011;44800;55.600;38.134;2023-04-01T16:25:49;15.88;;;10.27;;
59016;SDS011;44800;55.600;38.134;2023-04-01T16:28:24;15.38;;;9.50;;
59016;SDS011;44800;55.600;38.134;2023-04-01T16:30:57;15.82;;;10.82;;
59016;SDS011;44800;55.600;38.134;2023-04-01T16:33:31;17.70;;;10.43;;
59016;SDS011;44800;55.600;38.134;2023-04-01T16:36:17;15.82;;;9.77;;
59016;SDS011;44800;55.600;38.134;2023-04-01T16:38:54;16.45;;;8.10;;
59016;SDS011;44800;55.600;38.134;2023-04-01T16:41:31;16.95;;;8.98;;
59016;SDS011;44800;55.600;38.134;2023-04-01T16:44:09;16.50;;;10.20;;
59016;SDS011;44800;55.600;38.134;2023-04-01T16:46:41;22.95;;;11.45;;
59016;SDS011;44800;55.600;38.134;2023-04-01T16:49:23;18.58;;;10.25;;
59016;SDS011;44800;55.600;38.134;2023-04-01T16:51:54;17.67;;;9.55;;
59016;SDS011;44800;55.600;38.134;2023-04-01T16:54:30;22.98;;;12.00;;
59016;SDS011;44800;55.600;38.134;2023-04-01T16:57:10;18.45;;;10.55;;
59016;SDS011;44800;55.600;38.134;2023-04-01T16:59:46;18.95;;;9.95;;
59016;SDS011;44800;55.600;38.134;2023-04-01T17:02:16;20.13;;;11.95;;
59016;SDS011;44800;55.600;38.134;2023-04-01T17:04:46;25.58;;;13.13;;
59016;SDS011;44800;55.600;38.134;2023-04-01T17:07:20;20.85;;;12.13;;
59016;SDS011;44800;55.600;38.134;2023-04-01T17:09:56;19.70;;;10.82;;